createdAt,value
2023-04-11T00:00:19.359Z,34.67
2023-04-11T00:02:48.267Z,34.03
2023-04-11T00:05:18.451Z,35.37
2023-04-11T00:07:46.978Z,37.77
2023-04-11T00:10:15.607Z,39.57
2023-04-11T00:12:44.239Z,36.67
2023-04-11T00:15:13.035Z,35.97
2023-04-11T00:17:41.733Z,39.40
2023-04-11T00:20:11.727Z,41.07
2023-04-11T00:22:42.254Z,49.80
2023-04-11T00:25:11.438Z,44.60
2023-04-11T00:27:40.098Z,44.73
2023-04-11T00:30:09.627Z,40.37
2023-04-11T00:32:38.520Z,39.43
2023-04-11T00:35:08.877Z,35.30
2023-04-11T00:37:37.433Z,39.23
2023-04-11T00:40:09.132Z,38.83
2023-04-11T00:42:37.990Z,35.53
2023-04-11T00:45:07.424Z,36.23
2023-04-11T00:47:36.919Z,37.43
2023-04-11T00:50:06.136Z,35.77
2023-04-11T00:52:34.940Z,36.13
2023-04-11T00:55:04.252Z,39.80
2023-04-11T00:57:34.983Z,37.87
2023-04-11T01:00:04.935Z,37.37
2023-04-11T01:02:33.708Z,38.67
2023-04-11T01:05:02.428Z,37.90
2023-04-11T01:07:32.630Z,35.87
2023-04-11T01:10:02.949Z,34.30
2023-04-11T01:12:41.299Z,37.63
2023-04-11T01:15:10.809Z,34.97
2023-04-11T01:17:42.095Z,35.87
2023-04-11T01:20:11.858Z,36.17
2023-04-11T01:22:42.808Z,35.87
2023-04-11T01:25:13.986Z,34.67
2023-04-11T01:27:42.926Z,36.07
2023-04-11T01:30:13.056Z,34.07
2023-04-11T01:32:41.756Z,31.63
2023-04-11T01:35:12.502Z,33.60
2023-04-11T01:37:41.266Z,33.37
2023-04-11T01:40:12.005Z,31.90
2023-04-11T01:42:41.146Z,32.57
2023-04-11T01:45:13.278Z,32.33
2023-04-11T01:47:41.969Z,33.43
2023-04-11T01:50:12.391Z,33.73
2023-04-11T01:52:40.933Z,33.67
2023-04-11T01:55:11.586Z,31.93
2023-04-11T01:57:40.263Z,33.03
2023-04-11T02:00:11.146Z,30.93
2023-04-11T02:02:40.051Z,29.60
2023-04-11T02:05:09.274Z,31.90
2023-04-11T02:07:38.129Z,31.77
2023-04-11T02:10:07.955Z,30.87
2023-04-11T02:12:38.175Z,34.50
2023-04-11T02:15:07.559Z,35.43
2023-04-11T02:17:37.003Z,31.83
2023-04-11T02:20:07.476Z,36.07
2023-04-11T02:22:36.059Z,33.83
2023-04-11T02:25:04.592Z,32.77
2023-04-11T02:27:33.486Z,34.00
2023-04-11T02:30:06.030Z,34.67
2023-04-11T02:32:35.524Z,30.50
2023-04-11T02:35:05.097Z,34.07
2023-04-11T02:37:33.656Z,35.67
2023-04-11T02:40:03.545Z,30.50
2023-04-11T02:42:32.099Z,33.10
2023-04-11T02:45:00.748Z,31.00
2023-04-11T02:47:30.706Z,30.60
2023-04-11T02:49:59.223Z,32.97
2023-04-11T02:52:27.833Z,33.80
2023-04-11T02:54:56.358Z,33.07
2023-04-11T02:57:24.906Z,31.50
2023-04-11T02:59:53.499Z,32.03
2023-04-11T03:02:23.627Z,31.03
2023-04-11T03:04:53.914Z,31.47
2023-04-11T03:07:22.541Z,31.63
2023-04-11T03:09:51.176Z,31.20
2023-04-11T03:12:20.342Z,28.07
2023-04-11T03:14:49.145Z,31.13
2023-04-11T03:17:17.867Z,33.83
2023-04-11T03:19:46.394Z,34.37
2023-04-11T03:22:17.568Z,31.67
2023-04-11T03:24:46.210Z,31.70
2023-04-11T03:27:14.793Z,33.57
2023-04-11T03:29:43.381Z,32.67
2023-04-11T03:32:11.998Z,31.17
2023-04-11T03:34:40.551Z,31.23
2023-04-11T03:37:09.156Z,31.70
2023-04-11T03:39:39.306Z,31.67
2023-04-11T03:42:08.056Z,31.97
2023-04-11T03:44:36.739Z,29.60
2023-04-11T03:47:05.492Z,30.97
2023-04-11T03:49:36.851Z,31.40
2023-04-11T03:52:06.458Z,31.30
2023-04-11T03:54:34.974Z,30.90
2023-04-11T03:57:05.147Z,31.27
2023-04-11T03:59:33.662Z,33.27
2023-04-11T04:02:02.394Z,26.83
2023-04-11T04:04:32.596Z,35.23
2023-04-11T04:07:01.914Z,36.10
2023-04-11T04:09:30.401Z,32.40
2023-04-11T04:11:58.938Z,38.40
2023-04-11T04:14:28.986Z,36.60
2023-04-11T04:16:58.042Z,37.33
2023-04-11T04:19:26.667Z,36.97
2023-04-11T04:21:58.378Z,36.47
2023-04-11T04:24:27.334Z,36.20
2023-04-11T04:26:58.096Z,36.20
2023-04-11T04:29:35.416Z,38.00
2023-04-11T04:32:11.008Z,35.90
2023-04-11T04:34:47.039Z,39.10
2023-04-11T04:37:21.805Z,50.85
2023-04-11T04:39:54.447Z,29.93
2023-04-11T04:42:24.334Z,37.73
2023-04-11T04:44:55.790Z,38.07
2023-04-11T04:47:25.990Z,38.03
2023-04-11T04:49:56.681Z,41.73
2023-04-11T04:52:26.127Z,38.50
2023-04-11T04:54:58.240Z,26.33
2023-04-11T04:58:02.501Z,35.30
2023-04-11T05:00:34.168Z,34.30
2023-04-11T05:03:05.883Z,33.23
2023-04-11T05:05:34.703Z,27.63
2023-04-11T05:08:03.518Z,23.77
2023-04-11T05:10:32.137Z,35.20
2023-04-11T05:13:00.778Z,31.03
2023-04-11T05:15:29.402Z,33.27
2023-04-11T05:17:59.465Z,32.03
2023-04-11T05:20:29.908Z,31.40
2023-04-11T05:22:58.427Z,29.60
2023-04-11T05:25:27.359Z,31.93
2023-04-11T05:27:56.241Z,29.97
2023-04-11T05:30:24.891Z,31.60
2023-04-11T05:32:53.653Z,31.97
2023-04-11T05:35:23.662Z,32.03
2023-04-11T05:37:52.254Z,30.53
2023-04-11T05:40:20.995Z,33.37
2023-04-11T05:42:49.772Z,29.80
2023-04-11T05:45:18.474Z,29.33
2023-04-11T05:47:47.123Z,28.43
2023-04-11T05:50:16.268Z,27.90
2023-04-11T05:52:46.285Z,26.60
2023-04-11T05:55:20.364Z,26.53
2023-04-11T05:57:48.873Z,25.20
2023-04-11T06:00:19.153Z,22.00
2023-04-11T06:02:49.343Z,21.73
2023-04-11T06:05:18.257Z,17.48
2023-04-11T06:07:48.409Z,17.70
2023-04-11T06:10:17.168Z,19.10
2023-04-11T06:12:45.987Z,19.23
2023-04-11T06:15:15.143Z,18.63
2023-04-11T06:17:43.646Z,20.30
2023-04-11T06:20:12.649Z,21.77
2023-04-11T06:22:41.227Z,19.90
2023-04-11T06:25:11.904Z,19.83
2023-04-11T06:27:40.766Z,20.00
2023-04-11T06:30:10.844Z,17.63
2023-04-11T06:32:39.438Z,19.43
2023-04-11T06:35:08.755Z,19.30
2023-04-11T06:37:37.402Z,19.10
2023-04-11T06:40:07.048Z,18.57
2023-04-11T06:42:37.247Z,19.43
2023-04-11T06:45:06.910Z,18.03
2023-04-11T06:47:35.575Z,16.90
2023-04-11T06:50:04.408Z,17.40
2023-04-11T06:52:33.020Z,19.67
2023-04-11T06:55:01.571Z,17.00
2023-04-11T06:57:30.508Z,16.33
2023-04-11T07:00:00.525Z,17.80
2023-04-11T07:02:29.275Z,19.37
2023-04-11T07:04:58.117Z,17.73
2023-04-11T07:07:27.773Z,16.93
2023-04-11T07:09:56.291Z,15.63
2023-04-11T07:12:24.889Z,18.33
2023-04-11T07:14:53.424Z,17.67
2023-04-11T07:17:23.449Z,20.40
2023-04-11T07:19:52.147Z,18.20
2023-04-11T07:22:20.973Z,19.87
2023-04-11T07:24:59.232Z,20.90
2023-04-11T07:27:29.056Z,23.53
2023-04-11T07:29:57.798Z,24.33
2023-04-11T07:32:27.804Z,27.80
2023-04-11T07:34:56.602Z,33.70
2023-04-11T07:37:27.127Z,29.87
2023-04-11T07:39:56.205Z,29.10
2023-04-11T07:42:24.803Z,18.50
2023-04-11T07:44:53.557Z,27.43
2023-04-11T07:47:22.131Z,19.60
2023-04-11T07:49:52.335Z,19.10
2023-04-11T07:52:21.040Z,18.47
2023-04-11T07:54:49.691Z,17.20
2023-04-11T07:57:18.295Z,15.93
2023-04-11T07:59:47.411Z,27.08
2023-04-11T08:02:16.328Z,16.50
2023-04-11T08:04:45.105Z,16.33
2023-04-11T08:07:15.445Z,17.57
2023-04-11T08:09:44.148Z,19.37
2023-04-11T08:12:12.987Z,14.43
2023-04-11T08:14:41.516Z,15.30
2023-04-11T08:17:21.152Z,13.70
2023-04-11T08:19:56.031Z,15.17
2023-04-11T08:22:26.193Z,15.50
2023-04-11T08:24:54.813Z,29.40
2023-04-11T08:27:23.358Z,24.80
2023-04-11T08:29:52.021Z,14.07
2023-04-11T08:32:20.663Z,10.90
2023-04-11T08:34:49.328Z,11.50
2023-04-11T08:37:17.890Z,19.07
2023-04-11T08:39:47.893Z,20.87
2023-04-11T08:42:26.615Z,18.35
2023-04-11T08:44:56.128Z,8.48
2023-04-11T08:47:24.861Z,12.43
2023-04-11T08:49:54.203Z,16.33
2023-04-11T08:52:23.500Z,15.68
2023-04-11T08:54:56.084Z,15.48
2023-04-11T08:57:31.680Z,13.93
2023-04-11T09:00:08.132Z,13.38
2023-04-11T09:02:36.934Z,12.00
2023-04-11T09:05:06.118Z,12.25
2023-04-11T09:07:50.508Z,11.88
2023-04-11T09:10:25.115Z,11.80
2023-04-11T09:12:53.924Z,10.07
2023-04-11T09:15:24.529Z,9.13
2023-04-11T09:17:53.618Z,13.65
2023-04-11T09:20:26.235Z,15.05
2023-04-11T09:22:55.554Z,14.10
2023-04-11T09:25:25.797Z,14.13
2023-04-11T09:28:10.208Z,12.95
2023-04-11T09:30:38.800Z,11.25
2023-04-11T09:33:22.838Z,22.87
2023-04-11T09:35:52.574Z,11.25
2023-04-11T09:38:32.102Z,11.55
2023-04-11T09:41:03.275Z,11.32
2023-04-11T09:43:50.753Z,9.88
2023-04-11T09:46:21.455Z,26.47
2023-04-11T09:48:50.603Z,12.75
2023-04-11T09:51:35.081Z,11.70
2023-04-11T09:54:06.240Z,11.30
2023-04-11T09:56:44.501Z,9.57
2023-04-11T09:59:14.580Z,9.13
2023-04-11T10:01:43.824Z,8.80
2023-04-11T10:04:13.910Z,9.30
2023-04-11T10:06:51.192Z,9.38
2023-04-11T10:09:20.528Z,9.73
2023-04-11T10:11:50.864Z,10.55
2023-04-11T10:14:44.448Z,9.75
2023-04-11T10:17:17.048Z,10.63
2023-04-11T10:19:48.835Z,9.97
2023-04-11T10:22:59.001Z,12.85
2023-04-11T10:25:27.713Z,9.93
2023-04-11T10:28:01.213Z,9.25
2023-04-11T10:31:14.304Z,10.82
2023-04-11T10:34:18.022Z,10.27
2023-04-11T10:37:06.313Z,11.82
2023-04-11T10:40:09.211Z,12.23
2023-04-11T10:42:39.478Z,10.13
2023-04-11T10:45:22.237Z,12.90
2023-04-11T10:48:13.076Z,11.43
2023-04-11T10:50:44.137Z,55.45
2023-04-11T10:53:38.614Z,36.55
2023-04-11T10:56:07.937Z,11.82
2023-04-11T10:58:38.951Z,84.15
2023-04-11T11:01:31.202Z,12.02
2023-04-11T11:04:17.154Z,19.58
2023-04-11T11:06:54.624Z,16.20
2023-04-11T11:09:26.357Z,70.32
2023-04-11T11:12:08.001Z,77.07
2023-04-11T11:14:37.198Z,317.75
2023-04-11T11:17:08.177Z,128.90
2023-04-11T11:19:37.574Z,31.27
2023-04-11T11:22:15.360Z,46.65
2023-04-11T11:24:43.975Z,36.13
2023-04-11T11:27:21.263Z,15.07
2023-04-11T11:29:50.072Z,11.82
2023-04-11T11:32:26.685Z,10.30
2023-04-11T11:34:55.684Z,181.02
2023-04-11T11:37:24.212Z,14.80
2023-04-11T11:39:53.383Z,13.02
2023-04-11T11:42:22.176Z,15.15
2023-04-11T11:44:50.725Z,16.88
2023-04-11T11:47:19.453Z,16.10
2023-04-11T11:49:52.727Z,14.60
2023-04-11T11:52:34.382Z,14.02
2023-04-11T11:55:06.863Z,15.13
2023-04-11T11:57:37.200Z,14.50
2023-04-11T12:00:11.103Z,14.65
2023-04-11T12:02:42.629Z,14.23
2023-04-11T12:05:13.707Z,15.48
2023-04-11T12:07:42.398Z,15.02
2023-04-11T12:10:18.251Z,16.35
2023-04-11T12:12:53.974Z,16.13
2023-04-11T12:15:24.638Z,15.73
2023-04-11T12:17:55.233Z,14.43
2023-04-11T12:20:26.737Z,22.90
2023-04-11T12:22:56.393Z,17.58
2023-04-11T12:25:26.098Z,15.05
2023-04-11T12:27:54.649Z,12.75
2023-04-11T12:30:23.199Z,14.80
2023-04-11T12:32:51.839Z,13.73
2023-04-11T12:35:20.474Z,17.33
2023-04-11T12:37:50.460Z,13.75
2023-04-11T12:40:19.203Z,13.40
2023-04-11T12:42:57.016Z,13.73
2023-04-11T12:45:27.151Z,11.30
2023-04-11T12:47:55.937Z,12.30
2023-04-11T12:50:24.908Z,12.18
2023-04-11T12:52:56.235Z,11.05
2023-04-11T12:55:25.333Z,11.63
2023-04-11T12:57:54.234Z,11.65
2023-04-11T13:00:23.257Z,10.35
2023-04-11T13:02:52.268Z,10.35
2023-04-11T13:05:21.680Z,11.43
2023-04-11T13:07:50.583Z,12.77
2023-04-11T13:10:20.905Z,12.85
2023-04-11T13:12:50.836Z,13.73
2023-04-11T13:15:19.440Z,12.82
2023-04-11T13:17:48.442Z,13.93
2023-04-11T13:20:17.172Z,15.50
2023-04-11T13:22:46.360Z,14.80
2023-04-11T13:25:15.077Z,13.07
2023-04-11T13:27:45.058Z,18.63
2023-04-11T13:30:15.168Z,11.70
2023-04-11T13:32:44.286Z,14.80
2023-04-11T13:35:13.023Z,13.35
2023-04-11T13:37:42.290Z,12.85
2023-04-11T13:40:12.705Z,12.38
2023-04-11T13:42:41.458Z,13.32
2023-04-11T13:45:12.646Z,12.38
2023-04-11T13:47:41.412Z,12.90
2023-04-11T13:50:10.843Z,14.85
2023-04-11T13:52:39.771Z,12.85
2023-04-11T13:55:09.081Z,12.73
2023-04-11T13:57:38.377Z,12.70
2023-04-11T14:00:11.562Z,12.35
2023-04-11T14:02:42.460Z,16.40
2023-04-11T14:05:12.021Z,16.65
2023-04-11T14:07:40.686Z,19.02
2023-04-11T14:10:10.219Z,17.30
2023-04-11T14:12:38.989Z,16.23
2023-04-11T14:15:09.247Z,15.73
2023-04-11T14:17:38.037Z,13.15
2023-04-11T14:20:10.075Z,57.90
2023-04-11T14:22:38.890Z,17.08
2023-04-11T14:25:10.674Z,15.48
2023-04-11T14:27:41.062Z,15.85
2023-04-11T14:30:11.275Z,16.92
2023-04-11T14:32:39.999Z,12.95
2023-04-11T14:35:15.521Z,13.05
2023-04-11T14:37:45.280Z,12.95
2023-04-11T14:40:14.351Z,12.25
2023-04-11T14:42:42.981Z,11.70
2023-04-11T14:45:11.781Z,11.32
2023-04-11T14:47:40.558Z,11.45
2023-04-11T14:50:11.868Z,10.85
2023-04-11T14:52:40.497Z,15.68
2023-04-11T14:55:10.377Z,10.65
2023-04-11T14:57:49.804Z,10.32
2023-04-11T15:00:22.722Z,12.27
2023-04-11T15:02:54.356Z,10.02
2023-04-11T15:05:25.477Z,10.57
2023-04-11T15:07:55.063Z,77.35
2023-04-11T15:10:26.437Z,11.57
2023-04-11T15:12:55.159Z,11.43
2023-04-11T15:15:24.090Z,11.75
2023-04-11T15:18:23.725Z,11.70
2023-04-11T15:20:53.902Z,9.38
2023-04-11T15:23:22.669Z,9.98
2023-04-11T15:25:54.956Z,11.30
2023-04-11T15:28:25.288Z,10.98
2023-04-11T15:30:55.686Z,9.23
2023-04-11T15:33:24.812Z,8.77
2023-04-11T15:35:55.028Z,9.77
2023-04-11T15:38:23.762Z,10.15
2023-04-11T15:40:53.179Z,9.27
2023-04-11T15:43:22.880Z,8.55
2023-04-11T15:45:52.773Z,12.25
2023-04-11T15:48:21.427Z,18.67
2023-04-11T15:50:51.123Z,28.67
2023-04-11T15:53:21.103Z,30.35
2023-04-11T15:55:49.708Z,65.00
2023-04-11T15:58:19.820Z,277.35
2023-04-11T16:00:49.099Z,252.43
2023-04-11T16:03:18.340Z,186.27
2023-04-11T16:05:47.574Z,262.20
2023-04-11T16:08:16.257Z,386.70
2023-04-11T16:10:50.275Z,277.38
2023-04-11T16:13:18.919Z,107.63
2023-04-11T16:15:47.756Z,67.45
2023-04-11T16:18:17.150Z,312.77
2023-04-11T16:20:45.777Z,65.97
2023-04-11T16:23:14.456Z,57.17
2023-04-11T16:25:44.289Z,32.23
2023-04-11T16:28:15.792Z,22.05
2023-04-11T16:30:44.485Z,18.27
2023-04-11T16:33:13.174Z,16.73
2023-04-11T16:35:41.781Z,19.90
2023-04-11T16:38:10.399Z,38.63
2023-04-11T16:40:39.134Z,14.33
2023-04-11T16:43:07.834Z,12.20
2023-04-11T16:45:38.170Z,11.77
2023-04-11T16:48:08.479Z,11.10
2023-04-11T16:50:37.357Z,12.30
2023-04-11T16:53:06.693Z,14.03
2023-04-11T16:55:38.077Z,13.67
2023-04-11T16:58:09.160Z,15.97
2023-04-11T17:00:42.173Z,16.13
2023-04-11T17:03:11.047Z,14.63
2023-04-11T17:05:39.800Z,14.50
2023-04-11T17:08:08.398Z,16.57
2023-04-11T17:10:36.993Z,18.23
2023-04-11T17:13:05.724Z,17.43
2023-04-11T17:15:36.124Z,16.90
2023-04-11T17:18:06.302Z,16.13
2023-04-11T17:20:38.164Z,18.23
2023-04-11T17:23:06.928Z,21.50
2023-04-11T17:25:36.471Z,16.00
2023-04-11T17:28:05.159Z,17.20
2023-04-11T17:30:33.895Z,15.03
2023-04-11T17:33:02.579Z,19.10
2023-04-11T17:35:32.579Z,21.03
2023-04-11T17:38:02.035Z,19.83
2023-04-11T17:40:30.717Z,19.27
2023-04-11T17:42:59.295Z,16.67
2023-04-11T17:45:28.324Z,15.67
2023-04-11T17:47:56.967Z,15.23
2023-04-11T17:50:26.105Z,16.43
2023-04-11T17:52:56.681Z,14.83
2023-04-11T17:55:25.647Z,15.33
2023-04-11T17:57:54.220Z,14.93
2023-04-11T18:00:24.084Z,13.73
2023-04-11T18:02:57.872Z,14.17
2023-04-11T18:05:28.340Z,13.27
2023-04-11T18:08:00.113Z,15.13
2023-04-11T18:10:31.310Z,15.87
2023-04-11T18:13:00.798Z,22.20
2023-04-11T18:15:29.564Z,16.97
2023-04-11T18:17:59.309Z,31.83
2023-04-11T18:20:28.021Z,29.40
2023-04-11T18:22:57.988Z,17.87
2023-04-11T18:25:26.858Z,18.83
2023-04-11T18:27:55.430Z,17.40
2023-04-11T18:30:24.685Z,17.63
2023-04-11T18:32:54.588Z,19.57
2023-04-11T18:35:28.584Z,31.65
2023-04-11T18:38:00.415Z,23.10
2023-04-11T18:40:29.682Z,26.13
2023-04-11T18:42:58.785Z,28.53
2023-04-11T18:45:27.907Z,23.77
2023-04-11T18:47:56.991Z,22.10
2023-04-11T18:50:25.825Z,20.57
2023-04-11T18:52:56.548Z,19.67
2023-04-11T18:55:30.887Z,24.77
2023-04-11T18:58:00.837Z,26.50
2023-04-11T19:00:31.499Z,23.93
2023-04-11T19:03:01.824Z,23.70
2023-04-11T19:05:31.003Z,24.17
2023-04-11T19:08:01.188Z,23.90
2023-04-11T19:10:31.216Z,23.83
2023-04-11T19:12:59.711Z,23.07
2023-04-11T19:15:29.162Z,23.40
2023-04-11T19:17:58.487Z,24.67
2023-04-11T19:20:28.156Z,23.93
2023-04-11T19:22:56.719Z,25.73
2023-04-11T19:25:25.297Z,25.93
2023-04-11T19:27:55.709Z,25.70
2023-04-11T19:30:24.642Z,27.30
2023-04-11T19:32:53.327Z,26.37
2023-04-11T19:35:24.478Z,25.33
2023-04-11T19:37:53.473Z,26.33
2023-04-11T19:40:23.875Z,22.57
2023-04-11T19:42:52.818Z,27.60
2023-04-11T19:45:23.668Z,28.75
2023-04-11T19:47:52.462Z,24.50
2023-04-11T19:50:23.690Z,27.33
2023-04-11T19:52:57.270Z,25.70
2023-04-11T19:55:27.527Z,24.17
2023-04-11T19:57:56.528Z,25.87
2023-04-11T20:00:32.019Z,22.63
2023-04-11T20:03:03.011Z,22.40
2023-04-11T20:05:32.314Z,21.50
2023-04-11T20:08:00.957Z,19.08
2023-04-11T20:10:29.547Z,22.17
2023-04-11T20:12:58.097Z,22.17
2023-04-11T20:15:28.313Z,21.80
2023-04-11T20:17:57.003Z,20.10
2023-04-11T20:20:28.069Z,20.20
2023-04-11T20:22:56.898Z,20.80
2023-04-11T20:25:25.760Z,42.30
2023-04-11T20:27:54.478Z,33.27
2023-04-11T20:30:23.069Z,28.63
2023-04-11T20:32:54.266Z,25.00
2023-04-11T20:35:23.303Z,20.97
2023-04-11T20:37:54.289Z,20.30
2023-04-11T20:40:23.062Z,21.50
2023-04-11T20:42:51.708Z,30.17
2023-04-11T20:45:22.637Z,29.67
2023-04-11T20:47:54.446Z,29.87
2023-04-11T20:50:23.057Z,31.77
2023-04-11T20:52:53.236Z,32.93
2023-04-11T20:55:22.281Z,34.57
2023-04-11T20:57:50.922Z,29.77
2023-04-11T21:00:21.187Z,33.17
2023-04-11T21:02:53.879Z,31.57
2023-04-11T21:05:23.448Z,27.90
2023-04-11T21:07:54.518Z,24.67
2023-04-11T21:10:23.655Z,31.00
2023-04-11T21:12:54.308Z,20.27
2023-04-11T21:15:23.467Z,54.87
2023-04-11T21:17:53.687Z,34.17
2023-04-11T21:20:22.776Z,34.03
2023-04-11T21:22:54.091Z,39.40
2023-04-11T21:25:23.115Z,30.40
2023-04-11T21:27:51.684Z,31.77
2023-04-11T21:30:20.263Z,32.40
2023-04-11T21:32:49.612Z,31.27
2023-04-11T21:35:19.608Z,34.33
2023-04-11T21:37:49.191Z,29.53
2023-04-11T21:40:18.153Z,30.50
2023-04-11T21:42:46.753Z,30.03
2023-04-11T21:45:15.773Z,29.77
2023-04-11T21:47:44.421Z,30.10
2023-04-11T21:50:13.537Z,29.97
2023-04-11T21:52:43.654Z,27.83
2023-04-11T21:55:12.965Z,28.50
2023-04-11T21:57:41.707Z,32.87
2023-04-11T22:00:13.709Z,33.17
2023-04-11T22:02:42.505Z,31.57
2023-04-11T22:05:12.806Z,30.73
2023-04-11T22:07:48.827Z,35.27
2023-04-11T22:10:23.992Z,72.93
2023-04-11T22:13:18.028Z,38.03
2023-04-11T22:15:44.799Z,58.20
2023-04-11T22:18:14.016Z,38.83
2023-04-11T22:20:44.918Z,35.00
2023-04-11T22:23:17.966Z,26.33
2023-04-11T22:25:46.541Z,26.73
2023-04-11T22:28:18.512Z,27.27
2023-04-11T22:30:48.692Z,28.93
2023-04-11T22:33:17.398Z,28.00
2023-04-11T22:35:48.025Z,21.77
2023-04-11T22:38:18.156Z,21.40
2023-04-11T22:40:46.773Z,26.63
2023-04-11T22:43:15.436Z,27.67
2023-04-11T22:45:47.211Z,28.10
2023-04-11T22:48:15.750Z,25.83
2023-04-11T22:50:49.788Z,23.00
2023-04-11T22:53:19.818Z,23.17
2023-04-11T22:55:52.076Z,25.60
2023-04-11T22:58:20.727Z,30.07
2023-04-11T23:00:49.480Z,24.53
2023-04-11T23:03:18.784Z,25.20
2023-04-11T23:05:47.416Z,24.03
2023-04-11T23:08:16.080Z,22.63
2023-04-11T23:10:46.110Z,24.80
2023-04-11T23:13:15.837Z,28.90
2023-04-11T23:15:47.469Z,36.53
2023-04-11T23:18:16.245Z,35.53
2023-04-11T23:20:45.591Z,36.77
2023-04-11T23:23:14.413Z,37.57
2023-04-11T23:25:43.146Z,34.57
2023-04-11T23:28:13.615Z,35.43
2023-04-11T23:30:42.236Z,37.67
2023-04-11T23:33:10.823Z,30.27
2023-04-11T23:35:39.510Z,31.87
2023-04-11T23:38:08.170Z,32.30
2023-04-11T23:40:36.761Z,31.90
2023-04-11T23:43:05.452Z,30.37
2023-04-11T23:45:36.406Z,31.97
2023-04-11T23:48:05.418Z,29.40
2023-04-11T23:50:34.133Z,30.37
2023-04-11T23:53:02.773Z,30.63
2023-04-11T23:55:32.415Z,24.43
2023-04-11T23:58:01.086Z,25.30
